Time;durP1;ratioP1;P1;durP2;ratioP2;P2;SDS_P1;SDS_P2;PMS_P1;PMS_P2;Temp;Humidity;BMP_temperature;BMP_pressure;BME280_temperature;BME280_humidity;BME280_pressure;Samples;Min_cycle;Max_cycle;Signal;HPM_P1;HPM_P2
2022/12/12 00:01:01;;;;;;;43.90;20.02;;;;;;;;;;5067142;28;20113;-79
2022/12/12 00:03:33;;;;;;;43.88;20.42;;;;;;;;;;5041664;28;20032;-79
2022/12/12 00:12:27;;;;;;;40.47;18.55;;;;;;;;;;5056208;28;20025;-79
2022/12/12 00:21:50;;;;;;;;;;;;;;;;;;;;;
2022/12/12 00:27:26;;;;;;;44.17;19.30;;;;;;;;;;5102803;22;20058;-79
2022/12/12 00:29:53;;;;;;;42.70;21.15;;;;;;;;;;5041165;28;20075;-78
2022/12/12 00:32:27;;;;;;;38.55;18.73;;;;;;;;;;5078877;28;20009;-83
2022/12/12 00:37:46;;;;;;;41.65;18.88;;;;;;;;;;5200702;22;20223;-82
2022/12/12 00:40:15;;;;;;;40.25;19.02;;;;;;;;;;5062070;28;20026;-82
2022/12/12 00:42:46;;;;;;;41.63;20.83;;;;;;;;;;5056975;28;20052;-78
2022/12/12 00:45:29;;;;;;;40.40;18.38;;;;;;;;;;5054330;22;20056;-79
2022/12/12 00:47:58;;;;;;;43.30;19.77;;;;;;;;;;5093804;28;20400;-79
2022/12/12 00:50:24;;;;;;;44.22;18.45;;;;;;;;;;5092866;28;20047;-79
2022/12/12 00:52:58;;;;;;;43.95;19.30;;;;;;;;;;5075746;28;20466;-78
2022/12/12 00:55:27;;;;;;;41.25;18.45;;;;;;;;;;5065688;28;20033;-80
2022/12/12 00:58:03;;;;;;;44.65;20.33;;;;;;;;;;5074366;28;20104;-78
2022/12/12 01:00:32;;;;;;;38.55;18.90;;;;;;;;;;5059553;28;20372;-78
2022/12/12 01:02:59;;;;;;;41.97;18.50;;;;;;;;;;5074989;28;20021;-79
2022/12/12 01:05:49;;;;;;;39.17;17.58;;;;;;;;;;5074229;28;20086;-78
2022/12/12 01:27:13;;;;;;;42.33;19.27;;;;;;;;;;5102583;22;20055;-79
2022/12/12 01:29:39;;;;;;;43.13;18.45;;;;;;;;;;5067481;28;20025;-80
2022/12/12 01:32:07;;;;;;;39.65;18.33;;;;;;;;;;5055065;28;20083;-79
2022/12/12 01:34:41;;;;;;;43.90;19.58;;;;;;;;;;5068419;28;20384;-79
2022/12/12 01:37:07;;;;;;;44.08;18.73;;;;;;;;;;5063405;28;20482;-79
2022/12/12 01:39:39;;;;;;;42.60;18.45;;;;;;;;;;5053080;28;20477;-79
2022/12/12 01:42:17;;;;;;;44.63;19.58;;;;;;;;;;5069622;28;20033;-81
2022/12/12 01:44:52;;;;;;;37.45;17.95;;;;;;;;;;5041345;28;20028;-79
2022/12/12 01:47:20;;;;;;;42.30;19.48;;;;;;;;;;5073322;28;20148;-79
2022/12/12 01:49:57;;;;;;;44.08;18.98;;;;;;;;;;5059259;28;20049;-79
2022/12/12 01:52:29;;;;;;;44.10;19.88;;;;;;;;;;5073639;28;20021;-79
2022/12/12 01:54:58;;;;;;;40.35;18.77;;;;;;;;;;5073519;28;20036;-79
2022/12/12 01:57:32;;;;;;;37.97;18.55;;;;;;;;;;5061200;28;20444;-79
2022/12/12 02:00:32;;;;;;;37.50;18.48;;;;;;;;;;5053132;28;20166;-79
2022/12/12 02:03:37;;;;;;;42.92;18.67;;;;;;;;;;5035844;28;20036;-80
2022/12/12 02:05:59;;;;;;;;;;;;;;;;;;5074968;28;20098;-81
2022/12/12 02:08:26;;;;;;;41.67;17.92;;;;;;;;;;5048838;28;20473;-79
2022/12/12 02:11:01;;;;;;;37.17;18.27;;;;;;;;;;5072904;28;20028;-79
2022/12/12 02:13:44;;;;;;;41.97;19.90;;;;;;;;;;5062089;28;20118;-79
2022/12/12 02:16:27;;;;;;;41.38;18.65;;;;;;;;;;5060759;28;20066;-82
2022/12/12 02:19:27;;;;;;;43.22;19.08;;;;;;;;;;5072674;28;20029;-79
2022/12/12 02:22:07;;;;;;;43.85;19.55;;;;;;;;;;5071292;28;20073;-79
2022/12/12 02:24:36;;;;;;;44.58;19.50;;;;;;;;;;5058439;28;20025;-79
2022/12/12 02:27:27;;;;;;;46.08;19.65;;;;;;;;;;5044776;28;20630;-79
2022/12/12 02:30:32;;;;;;;43.30;19.27;;;;;;;;;;5035000;28;20060;-80
2022/12/12 02:32:58;;;;;;;43.95;18.13;;;;;;;;;;5060659;28;20498;-79
2022/12/12 02:35:30;;;;;;;46.05;20.98;;;;;;;;;;5060829;28;20368;-77
2022/12/12 02:38:15;;;;;;;52.55;20.38;;;;;;;;;;5033995;28;20036;-78
2022/12/12 02:40:51;;;;;;;45.33;19.85;;;;;;;;;;5057729;28;20035;-80
2022/12/12 02:43:24;;;;;;;46.63;20.85;;;;;;;;;;5061330;28;20036;-77
2022/12/12 02:45:59;;;;;;;42.53;20.42;;;;;;;;;;5049311;28;20520;-77
2022/12/12 02:48:43;;;;;;;45.80;20.58;;;;;;;;;;5067482;28;20124;-79
2022/12/12 02:51:21;;;;;;;;;;;;;;;;;;;;;
2022/12/12 02:54:18;;;;;;;;;;;;;;;;;;;;;
2022/12/12 02:56:48;;;;;;;46.35;20.90;;;;;;;;;;5019307;28;20037;-78
2022/12/12 02:59:48;;;;;;;49.05;22.17;;;;;;;;;;5061582;28;20024;-78
2022/12/12 03:02:34;;;;;;;42.47;20.83;;;;;;;;;;5067441;28;20036;-78
2022/12/12 03:08:14;;;;;;;51.17;23.05;;;;;;;;;;5073535;28;20087;-78
2022/12/12 03:11:02;;;;;;;;;;;;;;;;;;;;;
2022/12/12 03:19:52;;;;;;;46.58;19.63;;;;;;;;;;5068109;28;19904;-79
2022/12/12 03:22:37;;;;;;;44.90;20.38;;;;;;;;;;5042247;28;20035;-80
2022/12/12 03:25:33;;;;;;;48.42;21.75;;;;;;;;;;5069102;28;20013;-77
2022/12/12 03:28:27;;;;;;;43.50;20.73;;;;;;;;;;5090713;28;20029;-80
2022/12/12 03:34:32;;;;;;;45.72;20.50;;;;;;;;;;5091314;28;20009;-78
2022/12/12 03:40:38;;;;;;;42.50;18.70;;;;;;;;;;4963796;28;20035;-78
2022/12/12 03:43:32;;;;;;;40.83;19.52;;;;;;;;;;5064003;28;20025;-80
2022/12/12 03:46:20;;;;;;;43.95;19.85;;;;;;;;;;5039026;28;20021;-78
2022/12/12 03:49:05;;;;;;;45.47;20.40;;;;;;;;;;5070409;28;20036;-78
2022/12/12 03:51:53;;;;;;;46.40;21.55;;;;;;;;;;5061341;28;20529;-77
2022/12/12 03:54:41;;;;;;;45.45;21.02;;;;;;;;;;5000866;28;20040;-77
2022/12/12 03:57:11;;;;;;;45.20;20.80;;;;;;;;;;5046421;28;20110;-78
2022/12/12 04:03:08;;;;;;;46.13;19.60;;;;;;;;;;5065347;28;20444;-78
2022/12/12 04:14:38;;;;;;;;;;;;;;;;;;;;;
2022/12/12 04:23:26;;;;;;;;;;;;;;;;;;;;;
2022/12/12 04:29:10;;;;;;;42.00;17.70;;;;;;;;;;5061896;28;20035;-78
2022/12/12 04:31:49;;;;;;;40.97;18.67;;;;;;;;;;5055101;28;20050;-78
2022/12/12 04:34:21;;;;;;;37.72;18.42;;;;;;;;;;5050078;28;20021;-79
2022/12/12 04:37:13;;;;;;;38.80;17.38;;;;;;;;;;5042394;28;20024;-78
2022/12/12 04:39:45;;;;;;;39.38;17.42;;;;;;;;;;5073604;28;20024;-78
2022/12/12 04:45:53;;;;;;;38.70;17.90;;;;;;;;;;5032271;28;20490;-79
2022/12/12 04:48:48;;;;;;;39.65;18.95;;;;;;;;;;5035414;28;20040;-79
2022/12/12 04:51:44;;;;;;;40.38;18.05;;;;;;;;;;5030587;28;20035;-79
2022/12/12 04:59:51;;;;;;;;;;;;;;;;;;;;;
2022/12/12 05:02:29;;;;;;;42.47;18.88;;;;;;;;;;5007659;28;20033;-77
2022/12/12 05:05:21;;;;;;;40.47;18.42;;;;;;;;;;5052912;28;20032;-78
2022/12/12 05:08:15;;;;;;;37.30;16.55;;;;;;;;;;5038375;28;20112;-78
2022/12/12 05:10:44;;;;;;;34.63;16.65;;;;;;;;;;5025347;28;20036;-78
2022/12/12 05:13:46;;;;;;;44.95;19.65;;;;;;;;;;5038608;28;20034;-79
2022/12/12 05:16:23;;;;;;;37.97;18.15;;;;;;;;;;5015541;28;20034;-80
2022/12/12 05:18:57;;;;;;;40.38;18.30;;;;;;;;;;5039092;28;20025;-79
2022/12/12 05:21:26;;;;;;;39.72;18.75;;;;;;;;;;5025905;28;20076;-78
2022/12/12 05:24:04;;;;;;;37.72;18.45;;;;;;;;;;5052514;28;20029;-78
2022/12/12 05:26:37;;;;;;;40.20;18.75;;;;;;;;;;5019257;28;20530;-78
2022/12/12 05:29:12;;;;;;;36.90;18.45;;;;;;;;;;5026003;28;20045;-80
2022/12/12 05:31:52;;;;;;;41.00;18.15;;;;;;;;;;5048038;28;20025;-78
2022/12/12 05:34:20;;;;;;;41.00;16.48;;;;;;;;;;5020109;28;20052;-78
2022/12/12 05:36:54;;;;;;;39.03;18.15;;;;;;;;;;5041427;28;20032;-83
2022/12/12 05:39:21;;;;;;;41.05;17.77;;;;;;;;;;5037583;28;20089;-83
2022/12/12 05:41:55;;;;;;;35.97;16.40;;;;;;;;;;5066069;28;20044;-84
2022/12/12 05:44:30;;;;;;;37.65;18.38;;;;;;;;;;5040521;28;20048;-82
2022/12/12 05:47:04;;;;;;;36.70;17.50;;;;;;;;;;5042091;28;20041;-78
2022/12/12 05:49:37;;;;;;;35.92;16.85;;;;;;;;;;5034422;28;20039;-79
2022/12/12 05:54:53;;;;;;;35.75;16.70;;;;;;;;;;5046895;28;20557;-79
2022/12/12 05:57:40;;;;;;;37.88;17.80;;;;;;;;;;5016058;28;20259;-78
2022/12/12 06:03:52;;;;;;;40.42;17.73;;;;;;;;;;4975664;28;20116;-80
2022/12/12 06:09:28;;;;;;;45.10;18.73;;;;;;;;;;5044267;28;20605;-79
2022/12/12 06:12:06;;;;;;;42.10;18.92;;;;;;;;;;5053180;28;20037;-80
2022/12/12 06:15:10;;;;;;;;;;;;;;;;;;;;;
2022/12/12 06:24:42;;;;;;;41.60;18.55;;;;;;;;;;5049443;28;20029;-79
2022/12/12 06:27:19;;;;;;;40.38;18.38;;;;;;;;;;5044043;28;20494;-79
2022/12/12 06:30:34;;;;;;;;;;;;;;;;;;;;;
2022/12/12 06:33:27;;;;;;;33.47;16.65;;;;;;;;;;5050142;28;20086;-79
2022/12/12 06:39:07;;;;;;;39.13;18.80;;;;;;;;;;4951984;28;20493;-78
2022/12/12 06:41:38;;;;;;;42.13;19.05;;;;;;;;;;5037594;28;20052;-78
2022/12/12 06:44:17;;;;;;;37.63;18.27;;;;;;;;;;5018598;28;20060;-78
2022/12/12 06:46:49;;;;;;;41.38;21.15;;;;;;;;;;5020464;28;20471;-79
2022/12/12 06:49:24;;;;;;;43.80;19.77;;;;;;;;;;5023197;28;20253;-79
2022/12/12 06:51:53;;;;;;;41.97;20.55;;;;;;;;;;5048116;28;20033;-79
2022/12/12 06:54:30;;;;;;;40.88;19.08;;;;;;;;;;5037039;28;20061;-79
2022/12/12 06:57:04;;;;;;;38.17;18.92;;;;;;;;;;5045419;28;20040;-78
2022/12/12 06:59:34;;;;;;;41.00;18.95;;;;;;;;;;5031773;28;20463;-81
2022/12/12 07:02:23;;;;;;;38.28;18.52;;;;;;;;;;5054201;28;20082;-78
2022/12/12 07:08:41;;;;;;;37.03;18.63;;;;;;;;;;5035554;28;20037;-79
2022/12/12 07:11:10;;;;;;;38.50;18.80;;;;;;;;;;5050560;28;20022;-79
2022/12/12 07:16:59;;;;;;;39.00;19.63;;;;;;;;;;5039048;28;20637;-80
2022/12/12 07:19:31;;;;;;;41.65;21.17;;;;;;;;;;5030983;28;20089;-79
2022/12/12 07:22:33;;;;;;;41.40;18.52;;;;;;;;;;5040217;28;20021;-80
2022/12/12 07:28:22;;;;;;;41.50;21.02;;;;;;;;;;5036368;28;20030;-80
2022/12/12 07:31:02;;;;;;;36.67;18.10;;;;;;;;;;4990493;28;20026;-80
2022/12/12 07:33:48;;;;;;;37.67;18.95;;;;;;;;;;4996633;28;20516;-80
2022/12/12 07:37:17;;;;;;;;;;;;;;;;;;;;;
2022/12/12 07:58:54;;;;;;;32.45;17.60;;;;;;;;;;4149614;22;20470;-77
2022/12/12 08:10:22;;;;;;;26.23;14.70;;;;;;;;;;5069680;28;20048;-79
2022/12/12 08:22:35;;;;;;;25.50;14.07;;;;;;;;;;5047341;28;20553;-77
2022/12/12 08:28:47;;;;;;;;;;;;;;;;;;;;;
2022/12/12 08:34:47;;;;;;;24.85;13.38;;;;;;;;;;5040059;28;20395;-79
2022/12/12 08:37:38;;;;;;;22.73;13.32;;;;;;;;;;5129727;23;20097;-80
2022/12/12 08:43:42;;;;;;;;;;;;;;;;;;;;;
2022/12/12 08:46:56;;;;;;;;;;;;;;;;;;;;;
2022/12/12 08:53:18;;;;;;;;;;;;;;;;;;;;;
2022/12/12 08:59:30;;;;;;;21.98;12.55;;;;;;;;;;4972744;28;20417;-77
2022/12/12 09:02:31;;;;;;;22.92;12.82;;;;;;;;;;5018722;28;20063;-78
2022/12/12 09:26:41;;;;;;;;;;;;;;;;;;;;;
2022/12/12 09:33:06;;;;;;;;;;;;;;;;;;;;;
2022/12/12 09:42:10;;;;;;;22.58;13.10;;;;;;;;;;5069268;28;20055;-75
2022/12/12 09:56:27;;;;;;;24.08;13.30;;;;;;;;;;5018895;28;20030;-79
2022/12/12 09:59:19;;;;;;;26.38;13.65;;;;;;;;;;4998275;28;20495;-76
2022/12/12 10:05:13;;;;;;;22.05;13.05;;;;;;;;;;4998763;28;20475;-78
2022/12/12 10:07:54;;;;;;;22.17;12.30;;;;;;;;;;5012682;28;20510;-79
2022/12/12 10:11:07;;;;;;;22.45;12.68;;;;;;;;;;4992122;28;20065;-80
2022/12/12 10:13:52;;;;;;;23.67;13.85;;;;;;;;;;4998505;28;20116;-78
2022/12/12 10:19:43;;;;;;;24.10;13.77;;;;;;;;;;5067131;28;20490;-78
2022/12/12 10:25:55;;;;;;;24.73;13.50;;;;;;;;;;5049585;28;20081;-77
2022/12/12 10:28:58;;;;;;;;;;;;;;;;;;;;;
2022/12/12 10:35:08;;;;;;;;;;;;;;;;;;;;;
2022/12/12 10:38:37;;;;;;;;;;;;;;;;;;;;;
2022/12/12 10:41:37;;;;;;;;;;;;;;;;;;;;;
2022/12/12 10:44:28;;;;;;;25.50;14.38;;;;;;;;;;5071629;28;20111;-78
2022/12/12 10:50:33;;;;;;;;;;;;;;;;;;;;;
2022/12/12 11:05:53;;;;;;;25.33;13.20;;;;;;;;;;5077255;28;20071;-76
2022/12/12 11:09:03;;;;;;;19.63;10.77;;;;;;;;;;5055466;28;20048;-77
2022/12/12 11:12:03;;;;;;;25.27;13.40;;;;;;;;;;5016786;28;20033;-77
2022/12/12 11:21:13;;;;;;;25.92;14.02;;;;;;;;;;4910469;28;20034;-77
2022/12/12 11:24:05;;;;;;;26.30;14.10;;;;;;;;;;4959380;28;20034;-77
2022/12/12 11:37:05;;;;;;;26.45;14.30;;;;;;;;;;5053918;22;20425;-76
2022/12/12 11:40:12;;;;;;;28.65;15.10;;;;;;;;;;5063587;28;20081;-76
2022/12/12 11:46:28;;;;;;;;;;;;;;;;;;;;;
2022/12/12 11:58:28;;;;;;;28.42;14.20;;;;;;;;;;5109038;28;20074;-77
2022/12/12 12:01:13;;;;;;;27.52;14.75;;;;;;;;;;5085004;28;20028;-78
2022/12/12 12:07:15;;;;;;;30.70;15.60;;;;;;;;;;5099914;28;20054;-77
2022/12/12 12:13:32;;;;;;;29.77;14.98;;;;;;;;;;5101466;28;20061;-78
2022/12/12 12:19:24;;;;;;;27.52;15.02;;;;;;;;;;5083456;28;20028;-77
2022/12/12 12:28:04;;;;;;;26.35;14.75;;;;;;;;;;5366427;22;20052;-79
2022/12/12 12:31:00;;;;;;;28.77;15.00;;;;;;;;;;4970716;28;20130;-76
2022/12/12 12:40:26;;;;;;;;;;;;;;;;;;;;;
2022/12/12 12:49:27;;;;;;;;;;;;;;;;;;;;;
2022/12/12 12:59:09;;;;;;;29.95;16.10;;;;;;;;;;4917675;29;20042;-76
2022/12/12 13:02:25;;;;;;;29.20;16.02;;;;;;;;;;4864127;29;20085;-76
2022/12/12 13:10:47;;;;;;;30.02;15.30;;;;;;;;;;5049936;28;20037;-76
2022/12/12 13:20:05;;;;;;;;;;;;;;;;;;;;;
2022/12/12 13:23:05;;;;;;;32.10;16.50;;;;;;;;;;5073568;28;20021;-76
2022/12/12 13:26:02;;;;;;;33.22;16.88;;;;;;;;;;5072995;28;20017;-77
2022/12/12 13:29:08;;;;;;;39.40;19.30;;;;;;;;;;5070742;28;20020;-74
2022/12/12 13:32:31;;;;;;;;;;;;;;;;;;;;;
2022/12/12 13:38:34;;;;;;;31.58;15.27;;;;;;;;;;4990186;28;20049;-75
2022/12/12 13:41:21;;;;;;;30.20;16.38;;;;;;;;;;4974780;28;20022;-75
2022/12/12 13:44:17;;;;;;;30.10;15.25;;;;;;;;;;4969309;28;20124;-78
2022/12/12 13:47:12;;;;;;;27.40;14.82;;;;;;;;;;5177568;22;20064;-74
2022/12/12 13:50:08;;;;;;;29.02;15.77;;;;;;;;;;5034452;28;20126;-76
2022/12/12 13:56:23;;;;;;;;;;;;;;;;;;;;;
2022/12/12 14:02:23;;;;;;;26.88;13.77;;;;;;;;;;5010455;28;19909;-77
2022/12/12 14:18:11;;;;;;;25.58;14.45;;;;;;;;;;5070349;22;20037;-76
2022/12/12 14:21:09;;;;;;;27.95;13.27;;;;;;;;;;5071501;28;20051;-76
2022/12/12 14:27:10;;;;;;;24.50;13.45;;;;;;;;;;5056557;22;20053;-76
2022/12/12 14:36:12;;;;;;;25.02;13.60;;;;;;;;;;5081581;22;20140;-81
2022/12/12 14:38:45;;;;;;;24.90;13.38;;;;;;;;;;5053598;28;20859;-75
2022/12/12 14:41:17;;;;;;;26.40;14.48;;;;;;;;;;5072051;28;20103;-76
2022/12/12 14:43:55;;;;;;;25.05;13.57;;;;;;;;;;5072513;28;20043;-76
2022/12/12 14:46:29;;;;;;;24.73;14.00;;;;;;;;;;5054072;28;20044;-76
2022/12/12 14:49:02;;;;;;;27.85;14.48;;;;;;;;;;5072429;28;20033;-77
2022/12/12 14:51:46;;;;;;;29.73;14.25;;;;;;;;;;5071788;28;20024;-76
2022/12/12 14:54:17;;;;;;;23.45;13.13;;;;;;;;;;5054205;28;20486;-76
2022/12/12 14:56:51;;;;;;;25.98;11.02;;;;;;;;;;5069256;28;20348;-76
2022/12/12 14:59:48;;;;;;;31.20;13.98;;;;;;;;;;5044110;28;20028;-76
2022/12/12 15:02:22;;;;;;;25.38;13.57;;;;;;;;;;5029794;28;20037;-76
2022/12/12 15:04:50;;;;;;;23.20;12.50;;;;;;;;;;5037349;28;20025;-75
2022/12/12 15:07:27;;;;;;;25.42;13.93;;;;;;;;;;5050554;28;20030;-78
2022/12/12 15:09:54;;;;;;;24.05;13.32;;;;;;;;;;5050832;28;20021;-77
2022/12/12 15:12:23;;;;;;;26.33;13.70;;;;;;;;;;5051224;28;20025;-77
2022/12/12 15:14:54;;;;;;;28.73;14.88;;;;;;;;;;5051697;28;20028;-74
2022/12/12 15:17:27;;;;;;;31.25;14.90;;;;;;;;;;5049889;28;20018;-75
2022/12/12 15:20:16;;;;;;;25.60;14.20;;;;;;;;;;5050839;28;20022;-76
2022/12/12 15:22:48;;;;;;;29.00;13.48;;;;;;;;;;5028631;28;20029;-75
2022/12/12 15:25:28;;;;;;;28.67;14.65;;;;;;;;;;5050521;28;20029;-77
2022/12/12 15:27:58;;;;;;;31.75;16.48;;;;;;;;;;5050078;28;20040;-76
2022/12/12 15:30:29;;;;;;;34.35;17.50;;;;;;;;;;5053480;28;20026;-77
2022/12/12 15:32:58;;;;;;;32.85;17.02;;;;;;;;;;5052262;28;20028;-75
2022/12/12 15:41:43;;;;;;;38.53;18.38;;;;;;;;;;5059948;28;20409;-76
2022/12/12 15:44:32;;;;;;;;;;;;;;;;;;;;;
2022/12/12 15:47:09;;;;;;;37.40;19.08;;;;;;;;;;5075211;28;20055;-77
2022/12/12 15:50:00;;;;;;;41.88;19.40;;;;;;;;;;5074383;28;20375;-76
2022/12/12 15:52:28;;;;;;;40.60;19.10;;;;;;;;;;5078672;28;20028;-76
2022/12/12 16:01:28;;;;;;;;;;;;;;;;;;;;;
2022/12/12 16:07:45;;;;;;;41.00;19.60;;;;;;;;;;5438813;22;20108;-83
2022/12/12 16:17:04;;;;;;;;;;;;;;;;;;;;;
2022/12/12 16:19:38;;;;;;;40.25;19.45;;;;;;;;;;5064113;28;20041;-76
2022/12/12 16:22:44;;;;;;;;;;;;;;;;;;;;;
2022/12/12 16:28:04;;;;;;;37.20;18.92;;;;;;;;;;5199416;22;20064;-74
2022/12/12 16:30:45;;;;;;;39.58;20.27;;;;;;;;;;5072916;28;20024;-75
2022/12/12 16:36:54;;;;;;;35.15;16.92;;;;;;;;;;5067666;28;20029;-78
2022/12/12 16:39:32;;;;;;;33.70;18.55;;;;;;;;;;5016766;28;20453;-73
2022/12/12 16:42:22;;;;;;;31.85;17.40;;;;;;;;;;5053221;28;20419;-76
2022/12/12 16:45:04;;;;;;;35.90;17.67;;;;;;;;;;5043310;28;20120;-75
2022/12/12 16:47:44;;;;;;;38.35;19.00;;;;;;;;;;5073890;28;20013;-75
2022/12/12 16:53:30;;;;;;;35.65;18.13;;;;;;;;;;5074242;28;20025;-77
2022/12/12 16:55:59;;;;;;;36.70;18.77;;;;;;;;;;5013589;28;20087;-75
2022/12/12 17:01:56;;;;;;;;;;;;;;;;;;;;;
2022/12/12 17:04:41;;;;;;;33.97;17.60;;;;;;;;;;5012496;28;20029;-79
2022/12/12 17:07:12;;;;;;;33.58;18.52;;;;;;;;;;5070272;22;20056;-76
2022/12/12 17:10:07;;;;;;;;;;;;;;;;;;;;;
2022/12/12 17:19:15;;;;;;;35.13;17.60;;;;;;;;;;5012046;28;20022;-76
2022/12/12 17:22:22;;;;;;;33.92;18.00;;;;;;;;;;5011722;28;20618;-76
2022/12/12 17:25:21;;;;;;;34.53;16.73;;;;;;;;;;5043182;28;20048;-74
2022/12/12 17:28:22;;;;;;;;;;;;;;;;;;;;;
2022/12/12 17:31:09;;;;;;;32.72;17.60;;;;;;;;;;5050671;28;20029;-76
2022/12/12 17:33:54;;;;;;;;;;;;;;;;;;;;;
2022/12/12 17:42:41;;;;;;;31.13;16.05;;;;;;;;;;5072889;28;20035;-76
2022/12/12 17:48:34;;;;;;;32.40;17.33;;;;;;;;;;5072967;28;20041;-79
2022/12/12 17:51:32;;;;;;;28.90;15.02;;;;;;;;;;5079612;22;20052;-79
2022/12/12 17:54:06;;;;;;;28.65;16.13;;;;;;;;;;5073484;28;20479;-79
2022/12/12 17:56:41;;;;;;;30.58;17.17;;;;;;;;;;5076705;28;20033;-80
2022/12/12 17:59:19;;;;;;;32.08;17.30;;;;;;;;;;5073497;28;20037;-79
2022/12/12 18:01:54;;;;;;;33.90;18.65;;;;;;;;;;5076792;28;20028;-78
2022/12/12 18:04:43;;;;;;;33.30;18.45;;;;;;;;;;5071506;28;20032;-78
2022/12/12 18:07:32;;;;;;;33.50;17.55;;;;;;;;;;5071374;28;20035;-77
2022/12/12 18:10:12;;;;;;;39.53;19.75;;;;;;;;;;5067488;28;20040;-79
2022/12/12 18:12:44;;;;;;;35.15;18.40;;;;;;;;;;5073517;28;20256;-77
2022/12/12 18:18:51;;;;;;;37.67;19.58;;;;;;;;;;5073517;28;20081;-78
2022/12/12 18:24:32;;;;;;;33.40;17.75;;;;;;;;;;5023432;28;20060;-77
2022/12/12 18:27:46;;;;;;;;;;;;;;;;;;;;;
2022/12/12 18:30:16;;;;;;;31.75;17.42;;;;;;;;;;5056884;28;20036;-81
2022/12/12 18:32:45;;;;;;;36.72;19.88;;;;;;;;;;5060178;28;20509;-82
2022/12/12 18:35:36;;;;;;;37.03;19.17;;;;;;;;;;5077977;28;20020;-81
2022/12/12 18:43:50;;;;;;;;;;;;;;;;;;;;;
2022/12/12 18:49:54;;;;;;;33.92;18.98;;;;;;;;;;5059506;28;20043;-81
2022/12/12 18:52:35;;;;;;;35.90;19.98;;;;;;;;;;5024693;28;20030;-80
2022/12/12 18:58:37;;;;;;;33.03;18.15;;;;;;;;;;5089515;22;20053;-82
2022/12/12 19:04:22;;;;;;;37.78;18.90;;;;;;;;;;5011054;28;20047;-82
2022/12/12 19:31:14;;;;;;;36.72;19.08;;;;;;;;;;5071912;28;20062;-81
2022/12/12 19:36:51;;;;;;;35.90;18.58;;;;;;;;;;5076232;28;20099;-79
2022/12/12 20:06:22;;;;;;;33.97;17.80;;;;;;;;;;4966761;28;20031;-80
2022/12/12 21:06:31;;;;;;;24.80;14.57;;;;;;;;;;5003228;28;20037;-80
2022/12/12 21:15:42;;;;;;;26.20;14.70;;;;;;;;;;5077168;28;20047;-79
2022/12/12 21:18:38;;;;;;;;;;;;;;;;;;;;;
2022/12/12 21:24:06;;;;;;;28.00;14.98;;;;;;;;;;4987854;28;20030;-80
2022/12/12 21:26:45;;;;;;;28.00;15.88;;;;;;;;;;4974007;28;20039;-79
2022/12/12 21:29:19;;;;;;;25.67;14.50;;;;;;;;;;4978572;28;20092;-81
2022/12/12 21:34:33;;;;;;;26.60;14.55;;;;;;;;;;5090045;23;20067;-79
2022/12/12 21:37:34;;;;;;;34.53;16.02;;;;;;;;;;5080142;28;20074;-81
2022/12/12 21:43:36;;;;;;;23.88;14.15;;;;;;;;;;5044881;28;20032;-80
2022/12/12 21:57:47;;;;;;;31.77;16.48;;;;;;;;;;5052611;28;20036;-78
2022/12/12 22:00:39;;;;;;;33.08;15.77;;;;;;;;;;5070572;28;20060;-79
2022/12/12 22:03:07;;;;;;;26.85;15.40;;;;;;;;;;5076870;23;20530;-79
2022/12/12 22:05:43;;;;;;;27.85;16.42;;;;;;;;;;5050319;28;20032;-78
2022/12/12 22:08:11;;;;;;;30.27;16.25;;;;;;;;;;5058177;28;20033;-79
2022/12/12 22:11:12;;;;;;;29.30;15.65;;;;;;;;;;5058592;28;20029;-79
2022/12/12 22:13:42;;;;;;;26.40;14.90;;;;;;;;;;4974527;28;20041;-79
2022/12/12 22:16:19;;;;;;;26.02;14.18;;;;;;;;;;5053388;28;20029;-78
2022/12/12 22:19:06;;;;;;;28.70;15.55;;;;;;;;;;5036574;28;20565;-79
2022/12/12 22:21:47;;;;;;;25.75;14.40;;;;;;;;;;5043075;28;20035;-79
2022/12/12 22:24:30;;;;;;;26.60;15.10;;;;;;;;;;5043847;28;20021;-79
2022/12/12 22:27:10;;;;;;;31.13;15.93;;;;;;;;;;5069618;28;20032;-79
2022/12/12 22:29:36;;;;;;;28.40;15.68;;;;;;;;;;5026834;28;20333;-77
2022/12/12 22:32:02;;;;;;;25.10;14.10;;;;;;;;;;5041328;28;20036;-80
2022/12/12 22:34:28;;;;;;;26.02;14.68;;;;;;;;;;5060057;28;20024;-79
2022/12/12 22:37:06;;;;;;;24.05;13.18;;;;;;;;;;5053014;28;20049;-79
2022/12/12 22:39:38;;;;;;;22.15;12.60;;;;;;;;;;5067687;28;20029;-78
2022/12/12 22:42:05;;;;;;;26.17;13.18;;;;;;;;;;5049983;28;20090;-78
2022/12/12 22:44:34;;;;;;;21.58;13.02;;;;;;;;;;5064021;28;20079;-76
2022/12/12 22:47:14;;;;;;;26.38;13.85;;;;;;;;;;5043401;28;20059;-76
2022/12/12 22:49:49;;;;;;;23.45;13.38;;;;;;;;;;5043703;28;20021;-78
2022/12/12 22:52:23;;;;;;;26.27;13.95;;;;;;;;;;5034808;28;20140;-77
2022/12/12 22:55:16;;;;;;;23.60;13.27;;;;;;;;;;5032581;28;20033;-77
2022/12/12 23:13:57;;;;;;;26.90;14.05;;;;;;;;;;5393346;22;20056;-77
2022/12/12 23:16:47;;;;;;;;;;;;;;;;;;;;;
2022/12/12 23:19:34;;;;;;;23.90;13.98;;;;;;;;;;5062491;28;20017;-77
2022/12/12 23:22:24;;;;;;;23.38;13.90;;;;;;;;;;5047629;28;20487;-78
2022/12/12 23:24:55;;;;;;;25.25;13.15;;;;;;;;;;5055202;28;20036;-78
2022/12/12 23:30:39;;;;;;;25.90;13.27;;;;;;;;;;5071883;28;20044;-78
2022/12/12 23:33:25;;;;;;;22.77;13.23;;;;;;;;;;5026058;28;20032;-79
2022/12/12 23:36:03;;;;;;;22.90;13.90;;;;;;;;;;5063556;28;20033;-78
2022/12/12 23:38:32;;;;;;;21.58;12.65;;;;;;;;;;5068897;28;20036;-79
2022/12/12 23:44:25;;;;;;;24.42;14.27;;;;;;;;;;5071270;28;20059;-77
2022/12/12 23:47:09;;;;;;;25.45;12.35;;;;;;;;;;5037934;28;20102;-79
2022/12/12 23:49:42;;;;;;;19.90;12.85;;;;;;;;;;5053408;28;20035;-79
